»·PEaware :: AAL405 KBUR-KLAS

AAL405 :: KBUR-KLAS

FLIGHT INFORMATION

Flight Status: Arrived
Operator:
American Airlines
More flights by this operator :: More flights under this callsign
Pilot: Anonymous 39875 (39875)
Aircraft: EMBRAER EMB-170/175
(E170)
More flights by this aircraft type
Origin: KBUR Bob Hope-Burbank
United States
Destination: KLAS Harry Reid Intl
United States
More flights between these airports :: More routes between these airports
Route: SLAPP2 MISEN RNDRZ2
File this flight plan on PilotEdge
Remarks: RMK / SIMBRIEF
Altitude:
(Current/Filed)
27,000ft
Speed:
(Current/Filed)
423kts
Departed: 23-Jul-22 08:01 PM
Arrived: 23-Jul-22 09:18 PM
Distance/Time
Traveled:
194nm/1:17
Distance/Time
To Go:
Arrived

Flight Plot

Page will automatically refresh every two minutes.

Flight plan parsing failed; only flown route is shown


Map Options




Map Legend


Flown Route
Filed Route
Departure Airport
Arrival Airport
Navaid (VOR, NDB)
Fix

Horizontal Profiles

Position Reports

Time Latitude Longitude Heading Altitude Ground
Speed
23-Jul-22 19:53 34.196767 -118.350144 180 731ft 0kts
23-Jul-22 19:54 34.196767 -118.350144 180 731ft 0kts
23-Jul-22 19:55 34.196767 -118.350144 180 731ft 0kts
23-Jul-22 19:56 34.196767 -118.350144 180 731ft 0kts
23-Jul-22 19:57 34.196767 -118.350144 180 731ft 0kts
23-Jul-22 19:58 34.196767 -118.350144 180 731ft 0kts
23-Jul-22 19:59 34.196812 -118.350143 181 731ft 1kts
23-Jul-22 20:00 34.197169 -118.349752 270 731ft 112kts
23-Jul-22 20:01 34.197169 -118.349752 270 731ft 0kts
23-Jul-22 20:02 34.197169 -118.349752 270 731ft 0kts
23-Jul-22 20:03 34.197174 -118.350240 270 731ft 15kts
23-Jul-22 20:04 34.198196 -118.355182 349 731ft 7kts
23-Jul-22 20:05 34.203504 -118.356638 347 731ft 30kts
23-Jul-22 20:06 34.211394 -118.358898 326 731ft 8kts
23-Jul-22 20:07 34.199129 -118.356510 164 864ft 229kts
23-Jul-22 20:08 34.138762 -118.371968 218 3613ft 245kts
23-Jul-22 20:09 34.099635 -118.415271 234 5905ft 253kts
23-Jul-22 20:21 34.196767 -118.350144 180 731ft 0kts
23-Jul-22 20:22 34.196767 -118.350144 180 731ft 0kts
23-Jul-22 20:23 34.196767 -118.350144 180 731ft 0kts
23-Jul-22 20:24 34.196767 -118.350144 180 731ft 0kts
23-Jul-22 20:25 34.197165 -118.349928 262 731ft 2kts
23-Jul-22 20:26 34.197169 -118.349752 270 731ft 0kts
23-Jul-22 20:27 34.197169 -118.349752 270 731ft 0kts
23-Jul-22 20:28 34.197654 -118.350538 326 731ft 8kts
23-Jul-22 20:29 34.198800 -118.353533 270 731ft 9kts
23-Jul-22 20:30 34.201370 -118.356056 347 731ft 11kts
23-Jul-22 20:31 34.206740 -118.357541 346 731ft 23kts
23-Jul-22 20:32 34.211139 -118.358749 341 731ft 13kts
23-Jul-22 20:33 34.207954 -118.359194 165 731ft 103kts
23-Jul-22 20:34 34.152530 -118.368406 217 3569ft 241kts
23-Jul-22 20:35 34.100642 -118.424930 235 4567ft 250kts
23-Jul-22 20:36 34.122646 -118.492267 342 7581ft 261kts
23-Jul-22 20:37 34.193350 -118.465400 27 10634ft 290kts
23-Jul-22 20:38 34.275585 -118.419327 22 12582ft 341kts
23-Jul-22 20:39 34.365763 -118.376501 20 14381ft 356kts
23-Jul-22 20:40 34.459915 -118.332087 27 16184ft 369kts
23-Jul-22 20:41 34.543515 -118.257025 41 17997ft 380kts
23-Jul-22 20:42 34.624550 -118.171518 41 19798ft 392kts
23-Jul-22 20:43 34.680514 -118.059468 76 21606ft 397kts
23-Jul-22 20:44 34.696366 -117.925479 88 23416ft 405kts
23-Jul-22 20:45 34.703008 -117.787267 89 25221ft 414kts
23-Jul-22 20:46 34.709006 -117.645586 90 26841ft 428kts
23-Jul-22 20:47 34.717900 -117.498935 82 27009ft 450kts
23-Jul-22 20:48 34.752575 -117.349833 74 27013ft 463kts
23-Jul-22 20:49 34.794032 -117.200852 74 27016ft 466kts
23-Jul-22 20:51 34.835001 -117.050934 74 26977ft 467kts
23-Jul-22 20:52 34.874870 -116.900584 75 26904ft 467kts
23-Jul-22 20:53 34.914861 -116.750213 70 26891ft 469kts
23-Jul-22 20:54 34.980326 -116.611747 57 26901ft 474kts
23-Jul-22 20:55 35.057281 -116.481479 56 26675ft 472kts
23-Jul-22 20:56 35.135871 -116.358408 49 23815ft 447kts
23-Jul-22 20:57 35.219969 -116.250979 47 22813ft 429kts
23-Jul-22 20:58 35.299416 -116.144501 49 21072ft 407kts
23-Jul-22 20:59 35.369714 -116.047192 49 20042ft 372kts
23-Jul-22 21:00 35.436731 -115.954899 49 19040ft 353kts
23-Jul-22 21:01 35.501032 -115.866082 49 18037ft 343kts
23-Jul-22 21:02 35.563597 -115.779402 49 17039ft 337kts
23-Jul-22 21:03 35.625771 -115.694331 48 16038ft 332kts
23-Jul-22 21:04 35.687607 -115.610956 48 15036ft 326kts
23-Jul-22 21:05 35.753023 -115.535714 33 14038ft 323kts
23-Jul-22 21:06 35.830039 -115.483093 28 13034ft 309kts
23-Jul-22 21:07 35.904007 -115.432725 30 12505ft 301kts
23-Jul-22 21:08 35.973771 -115.383351 37 11475ft 277kts
23-Jul-22 21:09 36.006162 -115.303755 82 10510ft 257kts
23-Jul-22 21:10 36.008319 -115.216656 94 9511ft 252kts
23-Jul-22 21:11 36.003680 -115.131291 96 8840ft 243kts
23-Jul-22 21:12 36.001065 -115.047965 90 8164ft 234kts
23-Jul-22 21:13 36.004568 -114.970866 74 7032ft 226kts
23-Jul-22 21:13 36.045133 -114.947788 349 5619ft 198kts
23-Jul-22 21:15 36.073221 -114.997097 273 3640ft 163kts
23-Jul-22 21:16 36.073666 -115.048534 267 3164ft 146kts
23-Jul-22 21:17 36.073665 -115.099916 268 2542ft 148kts
23-Jul-22 21:18 36.073604 -115.141903 277 2125ft 33kts
23-Jul-22 21:18 36.074548 -115.145547 299 2125ft 11kts
23-Jul-22 21:19 36.077042 -115.146487 331 2125ft 21kts
23-Jul-22 21:21 36.078340 -115.144585 95 2125ft 12kts
23-Jul-22 21:22 36.079255 -115.141264 24 2125ft 7kts
23-Jul-22 21:23 36.079917 -115.140491 60 2125ft 0kts
23-Jul-22 21:23 36.079917 -115.140491 60 2125ft 0kts

Navigation Log

Ident Type
Flight plan parsing failed, navigation log unavailable